KLVN

Details ICAO KLVN
Name AIRLAKE
Region United States
Timezone America/Chicago (UTC-6.0)
Plans Departing 15
Arriving 3
Stats Elevation 960 ft / 293 m (AMSL)
Location 44.627858° -93.228097°
Runways 1
Magnetic Variation 0.219° E
Sunrise 2017-12-14 13:43:49 UTC / 2017-12-14 07:43:49 Local
Sunset 2017-12-14 22:34:25 UTC / 2017-12-14 16:34:25 Local
Advertisement - Login to hide

Runways

ID Width Length Bearing (true) Bearing (mag) Surface Threshold Offset Overrun Length
12 75 ft / 23 m 4,091 ft / 1,247 m 117.50° 117.28° Asphalt 0 ft / 0 m 0 ft / 0 m
30 75 ft / 23 m 4,091 ft / 1,247 m 297.51° 297.29° Asphalt 391 ft / 119 m 0 ft / 0 m

Approach Navaids

Runway Type Ident Frequency Range Bearing (true) Bearing (mag) Slope Elevation
30 Localiser ILVN 108.90 MHz 18 nm / 33 km 297.49° 297.27° - 960 ft / 293 m (AMSL)
30 Glidescope ILVN 108.90 MHz 10 nm / 19 km 297.51° 297.29° 3.00° 953 ft / 290 m (AMSL)

Map

Weather


0- 5 10 15 20 25 30 35+ Temperature / ° C

Clouds and Precipitation
Forecast for 2017-12-14 18:00 UTC. Updated 2 hours ago

Ground ~20,000 ft ~40,000 ft Winds

METAR

KLVN 141655Z AUTO 00000KT 7SM OVC018 M08/M09 A3004 RMK AO2

TAF

Not found

Frequencies

Unicom 123.00 MHz CTAF/UNICOM
Approach 125.00 MHz MINNEAPOLIS APP/DEP
Clearance 118.95 MHz CLNC DEL
Warning: Do not use this data for real-world aviation or navigation. No guarantee of current accuracy is given.